Time;durP1;ratioP1;P1;durP2;ratioP2;P2;SDS_P1;SDS_P2;PMS_P1;PMS_P2;Temp;Humidity;BMP_temperature;BMP_pressure;BME280_temperature;BME280_humidity;BME280_pressure;Samples;Min_cycle;Max_cycle;Signal;HPM_P1;HPM_P2
2021/03/04 00:00:20;;;;;;;42.20;21.30;;;;;;;6.40;45.41;96114.44;5102196;28;20456;-67
2021/03/04 00:02:47;;;;;;;39.65;20.83;;;;;;;6.31;45.93;96115.63;5091666;28;20889;-65
2021/03/04 00:05:15;;;;;;;43.30;23.00;;;;;;;6.39;45.60;96112.81;5101830;28;20328;-66
2021/03/04 00:07:41;;;;;;;38.20;19.47;;;;;;;6.35;45.60;96114.22;5089799;28;20801;-65
2021/03/04 00:10:13;;;;;;;42.65;21.92;;;;;;;6.38;45.48;96100.81;5101877;28;20543;-67
2021/03/04 00:12:41;;;;;;;42.30;21.38;;;;;;;6.45;45.20;96099.03;5090960;28;20691;-66
2021/03/04 00:15:10;;;;;;;40.50;20.17;;;;;;;6.32;45.16;96079.97;5101768;28;20198;-67
2021/03/04 00:17:49;;;;;;;35.35;18.63;;;;;;;6.26;45.39;96096.41;5090180;28;20294;-66
2021/03/04 00:20:29;;;;;;;39.22;18.92;;;;;;;6.17;45.75;96101.00;5102662;28;20198;-65
2021/03/04 00:22:56;;;;;;;37.00;18.50;;;;;;;6.16;45.74;96096.78;5090845;28;20633;-65
2021/03/04 00:25:34;;;;;;;40.95;20.02;;;;;;;6.11;45.63;96096.59;5103551;28;20467;-66
2021/03/04 00:28:03;;;;;;;34.40;18.45;;;;;;;6.01;46.20;96093.56;5102452;28;20847;-66
2021/03/04 00:30:29;;;;;;;35.22;17.58;;;;;;;6.00;45.99;96078.97;5103915;28;20198;-66
2021/03/04 00:32:56;;;;;;;35.38;19.48;;;;;;;6.07;46.05;96083.19;5090703;28;20211;-66
2021/03/04 00:35:23;;;;;;;38.17;18.33;;;;;;;6.02;46.09;96089.97;5100950;28;20210;-66
2021/03/04 00:37:50;;;;;;;37.90;19.58;;;;;;;5.86;46.45;96085.94;5091252;28;20226;-66
2021/03/04 00:40:19;;;;;;;35.28;18.58;;;;;;;5.83;46.77;96083.72;5101636;28;20588;-65
2021/03/04 00:42:46;;;;;;;39.92;19.55;;;;;;;5.87;46.46;96077.16;5090494;28;20210;-65
2021/03/04 00:45:19;;;;;;;32.92;17.17;;;;;;;5.84;46.54;96076.72;5101214;28;20198;-65
2021/03/04 00:48:05;;;;;;;29.85;16.00;;;;;;;5.67;46.89;96076.25;5090208;28;20179;-66
2021/03/04 00:50:32;;;;;;;34.80;17.25;;;;;;;5.61;47.36;96071.03;5099119;28;20263;-65
2021/03/04 00:52:58;;;;;;;30.20;17.00;;;;;;;5.61;46.99;96078.84;5115924;27;20675;-65
2021/03/04 00:55:25;;;;;;;38.28;17.83;;;;;;;5.57;47.01;96075.00;5101191;27;20210;-65
2021/03/04 00:57:51;;;;;;;33.78;19.25;;;;;;;5.55;47.24;96064.00;5090288;28;20202;-64
2021/03/04 01:00:18;;;;;;;36.85;19.08;;;;;;;4.91;49.06;96064.34;5099563;28;20707;-65
2021/03/04 01:02:44;;;;;;;42.17;20.85;;;;;;;5.01;49.36;96067.41;5093796;28;20203;-64
2021/03/04 01:05:11;;;;;;;41.25;22.15;;;;;;;5.26;49.34;96062.50;5100517;28;20241;-64
2021/03/04 01:07:37;;;;;;;45.90;24.05;;;;;;;5.03;50.04;96062.81;5090512;28;20187;-66
2021/03/04 01:10:09;;;;;;;48.30;22.33;;;;;;;5.16;49.69;96054.28;5099306;28;20202;-65
2021/03/04 01:12:36;;;;;;;36.72;20.02;;;;;;;4.48;50.83;96057.69;5090071;28;20210;-66
2021/03/04 01:15:14;;;;;;;35.92;19.95;;;;;;;4.89;50.45;96053.34;5099511;28;20554;-64
2021/03/04 01:17:41;;;;;;;39.63;21.40;;;;;;;3.65;54.46;96054.19;5090112;28;20195;-63
2021/03/04 01:20:10;;;;;;;39.17;21.92;;;;;;;4.12;53.61;96049.25;5100616;28;20202;-65
2021/03/04 01:22:36;;;;;;;40.53;23.50;;;;;;;3.89;53.71;96051.22;5089852;28;20194;-65
2021/03/04 01:25:04;;;;;;;43.17;21.67;;;;;;;4.40;52.82;96044.06;5098348;28;20202;-65
2021/03/04 01:27:30;;;;;;;41.47;23.27;;;;;;;4.75;51.87;96041.28;5090399;28;20206;-64
2021/03/04 01:29:56;;;;;;;44.03;22.67;;;;;;;4.86;50.78;96030.38;5099056;28;20206;-65
2021/03/04 01:32:23;;;;;;;39.58;21.90;;;;;;;5.03;50.52;96036.84;5099389;28;20194;-66
2021/03/04 01:34:49;;;;;;;44.45;23.58;;;;;;;5.06;50.42;96023.47;5103084;28;20627;-64
2021/03/04 01:37:16;;;;;;;45.10;24.15;;;;;;;4.75;51.58;96024.91;5093462;28;20234;-66
2021/03/04 01:39:42;;;;;;;40.35;22.35;;;;;;;4.86;50.95;96003.59;5096133;28;20581;-64
2021/03/04 01:42:08;;;;;;;42.38;22.10;;;;;;;4.85;50.84;96013.16;5093916;28;20197;-64
2021/03/04 01:44:34;;;;;;;45.45;22.33;;;;;;;4.90;50.95;96010.00;5097327;28;20194;-66
2021/03/04 01:47:02;;;;;;;40.97;22.13;;;;;;;4.77;50.90;96015.94;5102481;28;20198;-65
2021/03/04 01:49:29;;;;;;;45.13;24.90;;;;;;;4.96;50.67;96004.81;5099253;28;20201;-64
2021/03/04 01:51:55;;;;;;;40.50;23.67;;;;;;;4.83;50.70;96007.38;5095539;28;20715;-65
2021/03/04 01:54:23;;;;;;;43.30;23.63;;;;;;;4.77;50.88;96009.94;5093927;28;20588;-64
2021/03/04 01:56:49;;;;;;;39.58;21.98;;;;;;;4.67;51.37;96012.88;5094634;28;20222;-66
2021/03/04 01:59:16;;;;;;;38.25;22.98;;;;;;;4.69;51.25;96008.28;5092649;28;20195;-67
2021/03/04 02:01:42;;;;;;;43.78;24.00;;;;;;;4.50;51.55;96003.81;5096557;28;20219;-65
2021/03/04 02:04:09;;;;;;;39.47;23.40;;;;;;;4.49;51.68;96002.19;5091491;28;20195;-64
2021/03/04 02:06:46;;;;;;;49.75;25.98;;;;;;;4.50;51.56;95998.63;5096008;28;20190;-64
2021/03/04 02:09:15;;;;;;;60.80;30.38;;;;;;;4.37;51.74;96003.72;5092607;28;20215;-65
2021/03/04 02:11:53;;;;;;;88.95;41.10;;;;;;;4.37;51.45;95998.53;5097153;28;20585;-67
2021/03/04 02:14:30;;;;;;;88.90;42.67;;;;;;;4.32;51.86;95995.72;5093119;28;20191;-66
2021/03/04 02:17:05;;;;;;;90.13;40.22;;;;;;;4.41;52.08;96004.94;5094648;28;20698;-66
2021/03/04 02:19:54;;;;;;;84.35;37.90;;;;;;;4.09;52.37;96010.69;5095126;28;20202;-65
2021/03/04 02:22:36;;;;;;;75.95;35.15;;;;;;;4.18;52.41;96001.78;5094124;28;20195;-65
2021/03/04 02:25:30;;;;;;;77.40;37.83;;;;;;;3.97;52.46;96004.41;5102084;28;20654;-65
2021/03/04 02:27:59;;;;;;;82.75;39.65;;;;;;;4.04;52.39;95997.50;5088657;28;20199;-64
2021/03/04 02:30:36;;;;;;;82.53;36.53;;;;;;;4.17;52.13;96000.19;5100109;28;20203;-66
2021/03/04 02:33:13;;;;;;;73.88;35.67;;;;;;;4.29;51.34;95988.28;5088899;28;20206;-66
2021/03/04 02:35:41;;;;;;;73.15;33.95;;;;;;;4.04;51.91;95982.75;5099751;28;20639;-63
2021/03/04 02:38:11;;;;;;;70.03;34.10;;;;;;;4.10;51.93;95996.75;5089199;28;20527;-65
2021/03/04 02:40:41;;;;;;;69.35;33.30;;;;;;;4.05;52.01;95993.94;5099331;28;20206;-66
2021/03/04 02:43:11;;;;;;;71.18;33.67;;;;;;;4.12;51.82;95994.78;5089263;28;20878;-65
2021/03/04 02:45:38;;;;;;;87.07;38.35;;;;;;;3.93;52.13;95990.22;5099745;28;20238;-65
2021/03/04 02:48:06;;;;;;;73.43;35.15;;;;;;;3.74;52.64;95996.06;5089282;28;20286;-64
2021/03/04 02:50:33;;;;;;;73.63;32.63;;;;;;;3.77;52.23;95995.69;5098723;28;20213;-65
2021/03/04 02:53:00;;;;;;;65.28;30.10;;;;;;;3.77;52.71;96001.66;5112835;28;20254;-65
2021/03/04 02:55:26;;;;;;;60.72;28.65;;;;;;;3.68;52.81;95987.22;5103210;28;20644;-64
2021/03/04 02:57:54;;;;;;;58.00;27.98;;;;;;;3.72;52.16;95998.81;5092984;28;20298;-66
2021/03/04 03:00:28;;;;;;;56.22;28.35;;;;;;;3.62;52.87;95995.75;5103158;28;20195;-65
2021/03/04 03:02:56;;;;;;;62.05;28.40;;;;;;;3.67;52.84;96000.34;5093018;28;20693;-66
2021/03/04 03:05:25;;;;;;;65.88;31.52;;;;;;;3.56;53.42;96006.84;5103160;28;20218;-65
2021/03/04 03:07:52;;;;;;;64.68;30.02;;;;;;;3.49;53.33;96002.56;5092917;28;20679;-66
2021/03/04 03:10:19;;;;;;;64.57;30.10;;;;;;;3.85;52.36;95998.16;5102862;28;20209;-66
2021/03/04 03:12:48;;;;;;;60.10;29.27;;;;;;;3.70;53.02;95995.63;5092156;28;20201;-66
2021/03/04 03:15:16;;;;;;;63.17;32.10;;;;;;;3.77;52.73;95996.47;5103206;28;20552;-65
2021/03/04 03:17:45;;;;;;;63.13;31.58;;;;;;;3.97;52.41;96002.63;5092640;28;20218;-65
2021/03/04 03:20:17;;;;;;;75.82;36.08;;;;;;;3.80;52.92;95990.91;5101053;28;20265;-65
2021/03/04 03:22:45;;;;;;;74.55;35.20;;;;;;;3.62;53.45;95987.16;5101458;28;20198;-66
2021/03/04 03:25:13;;;;;;;80.25;38.05;;;;;;;3.69;53.21;95993.19;5102399;28;20338;-67
2021/03/04 03:27:41;;;;;;;67.22;34.08;;;;;;;3.38;53.56;95990.91;5092311;28;20191;-65
2021/03/04 03:30:10;;;;;;;69.78;31.42;;;;;;;3.55;53.34;95994.06;5102458;28;20207;-67
2021/03/04 03:32:40;;;;;;;61.13;30.13;;;;;;;3.46;53.27;95993.41;5092696;28;20203;-63
2021/03/04 03:35:09;;;;;;;59.97;28.70;;;;;;;3.41;53.60;95994.94;5102811;28;20210;-67
2021/03/04 03:37:36;;;;;;;68.25;31.40;;;;;;;3.57;52.97;95989.50;5092427;28;20306;-67
2021/03/04 03:40:05;;;;;;;69.55;32.80;;;;;;;3.63;52.74;95984.38;5101846;28;20206;-64
2021/03/04 03:42:34;;;;;;;63.22;32.85;;;;;;;3.65;52.48;95985.00;5092887;28;20199;-67
2021/03/04 03:45:03;;;;;;;61.63;30.00;;;;;;;3.59;53.26;95987.53;5101166;28;20224;-66
2021/03/04 03:47:32;;;;;;;65.43;31.98;;;;;;;3.28;53.91;95981.84;5092549;28;20200;-66
2021/03/04 03:50:17;;;;;;;59.42;30.42;;;;;;;3.29;53.83;95980.84;5102514;28;20309;-67
2021/03/04 03:52:45;;;;;;;67.35;34.03;;;;;;;3.41;53.80;95990.56;5093765;28;20211;-66
2021/03/04 03:55:13;;;;;;;68.57;34.83;;;;;;;3.23;54.10;95986.78;5109603;28;20198;-64
2021/03/04 03:57:44;;;;;;;68.60;32.15;;;;;;;3.24;53.73;95962.47;5091905;28;20264;-64
2021/03/04 04:00:13;;;;;;;74.25;34.70;;;;;;;3.40;53.45;95980.38;5102299;28;20640;-65
2021/03/04 04:02:42;;;;;;;74.65;34.25;;;;;;;3.22;54.35;95970.44;5090883;28;20576;-65
2021/03/04 04:05:09;;;;;;;65.55;33.30;;;;;;;3.23;54.10;95972.03;5101402;28;20226;-66
2021/03/04 04:07:37;;;;;;;78.00;35.25;;;;;;;3.35;53.40;95964.56;5091283;28;20201;-66
2021/03/04 04:10:05;;;;;;;70.82;33.58;;;;;;;3.18;54.22;95973.56;5101053;28;20191;-66
2021/03/04 04:12:31;;;;;;;72.35;32.90;;;;;;;3.25;53.82;95974.47;5092392;28;20203;-64
2021/03/04 04:14:58;;;;;;;56.70;29.52;;;;;;;3.04;53.92;95968.25;5100194;28;20297;-66
2021/03/04 04:17:24;;;;;;;59.92;30.23;;;;;;;3.30;53.84;95974.69;5092891;28;20215;-65
2021/03/04 04:19:56;;;;;;;64.10;31.92;;;;;;;3.01;54.17;95973.00;5099777;28;20198;-64
2021/03/04 04:22:23;;;;;;;63.47;29.77;;;;;;;3.09;53.78;95965.91;5092575;28;20260;-65
2021/03/04 04:24:50;;;;;;;62.95;29.52;;;;;;;3.05;54.20;95964.69;5098072;28;20213;-67
2021/03/04 04:27:17;;;;;;;55.15;28.50;;;;;;;3.01;54.53;95973.78;5094309;28;20207;-66
2021/03/04 04:29:44;;;;;;;58.45;29.17;;;;;;;3.01;54.18;95968.63;5097990;28;20222;-66
2021/03/04 04:32:10;;;;;;;54.03;26.73;;;;;;;2.90;54.69;95961.31;5094347;28;20194;-65
2021/03/04 04:34:37;;;;;;;62.85;25.98;;;;;;;3.10;54.65;95967.50;5097100;28;20298;-65
2021/03/04 04:37:03;;;;;;;52.65;24.55;;;;;;;2.76;55.33;95969.09;5095455;28;20697;-65
2021/03/04 04:39:29;;;;;;;52.42;26.58;;;;;;;2.81;55.21;95959.81;5094620;28;20195;-66
2021/03/04 04:41:57;;;;;;;64.07;32.58;;;;;;;3.03;54.41;95956.28;5099936;28;20251;-66
2021/03/04 04:44:23;;;;;;;55.03;25.45;;;;;;;2.84;55.41;95951.72;5095117;28;20274;-65
2021/03/04 04:46:49;;;;;;;50.58;25.63;;;;;;;2.70;55.97;95952.50;5104999;28;20202;-65
2021/03/04 04:49:16;;;;;;;47.38;24.15;;;;;;;2.60;55.73;95949.41;5104841;28;20203;-64
2021/03/04 04:51:42;;;;;;;47.38;25.25;;;;;;;2.59;56.43;95947.81;5090535;28;20712;-65
2021/03/04 04:54:09;;;;;;;51.42;25.77;;;;;;;2.80;55.38;95945.28;5092655;28;20210;-64
2021/03/04 04:56:35;;;;;;;53.53;24.77;;;;;;;2.76;54.87;95938.88;5095147;28;20668;-65
2021/03/04 04:59:02;;;;;;;58.70;25.45;;;;;;;2.83;54.98;95944.91;5095525;28;20276;-67
2021/03/04 05:01:29;;;;;;;56.58;24.58;;;;;;;2.92;54.97;95937.84;5097328;28;20271;-65
2021/03/04 05:03:55;;;;;;;64.25;27.92;;;;;;;2.83;54.72;95931.97;5110752;28;20201;-65
2021/03/04 05:06:21;;;;;;;71.10;27.17;;;;;;;2.71;55.39;95930.84;5110477;28;20238;-65
2021/03/04 05:08:48;;;;;;;73.38;29.88;;;;;;;2.73;55.24;95933.25;5105793;28;20186;-67
2021/03/04 05:11:17;;;;;;;79.78;30.80;;;;;;;2.60;56.13;95933.09;5103750;28;20202;-65
2021/03/04 05:13:44;;;;;;;73.35;31.30;;;;;;;2.60;56.15;95931.31;5110345;28;20660;-68
2021/03/04 05:16:12;;;;;;;84.45;32.95;;;;;;;2.64;56.05;95926.56;5109928;28;20301;-64
2021/03/04 05:18:38;;;;;;;67.10;32.58;;;;;;;2.82;55.41;95927.78;5110869;28;20198;-65
2021/03/04 05:21:06;;;;;;;74.00;32.03;;;;;;;2.74;55.43;95920.13;5110761;28;20222;-65
2021/03/04 05:23:33;;;;;;;74.38;36.53;;;;;;;2.68;55.51;95926.00;5110988;28;20293;-64
2021/03/04 05:26:00;;;;;;;73.43;35.75;;;;;;;2.80;55.41;95923.78;5104362;28;20201;-65
2021/03/04 05:28:26;;;;;;;94.55;43.28;;;;;;;2.63;55.98;95917.19;5090096;28;20203;-64
2021/03/04 05:30:53;;;;;;;86.65;41.47;;;;;;;2.79;55.85;95922.19;5089866;28;20573;-67
2021/03/04 05:33:20;;;;;;;75.60;36.72;;;;;;;2.77;55.41;95911.97;5090166;28;20207;-66
2021/03/04 05:35:47;;;;;;;70.22;33.72;;;;;;;2.61;56.14;95919.97;5090409;28;20194;-68
2021/03/04 05:38:14;;;;;;;79.80;34.10;;;;;;;2.38;57.12;95921.88;5083424;28;20210;-67
2021/03/04 05:40:40;;;;;;;71.95;34.40;;;;;;;2.70;56.44;95918.88;5078668;28;20199;-67
2021/03/04 05:43:09;;;;;;;65.75;33.97;;;;;;;2.57;56.57;95881.72;5085193;28;20206;-65
2021/03/04 05:45:39;;;;;;;71.03;35.33;;;;;;;2.65;56.58;95912.63;5102830;28;20574;-63
2021/03/04 05:48:07;;;;;;;66.40;37.20;;;;;;;2.71;64.20;95917.91;5100422;28;20439;-64
2021/03/04 05:50:40;;;;;;;66.90;35.22;;;;;;;2.82;59.38;95916.63;5089682;28;20202;-66
2021/03/04 05:53:14;;;;;;;61.58;35.22;;;;;;;2.77;58.35;95909.41;5088606;28;20633;-66
2021/03/04 05:55:43;;;;;;;67.68;35.35;;;;;;;2.55;58.42;95923.28;5089587;28;20274;-65
2021/03/04 05:58:11;;;;;;;65.47;34.05;;;;;;;2.46;58.54;95926.97;5089844;28;20183;-67
2021/03/04 06:00:41;;;;;;;57.85;32.03;;;;;;;2.42;58.54;95925.72;5088272;28;20191;-70
2021/03/04 06:03:08;;;;;;;69.82;33.85;;;;;;;2.49;58.15;95916.25;5090099;28;20207;-68
2021/03/04 06:05:35;;;;;;;56.03;32.65;;;;;;;2.88;57.17;95905.56;5089406;28;20612;-69
2021/03/04 06:08:03;;;;;;;58.70;31.08;;;;;;;2.89;57.00;95918.31;5089591;28;20191;-69
2021/03/04 06:10:31;;;;;;;69.07;35.58;;;;;;;3.31;55.59;95914.13;5089775;28;20509;-67
2021/03/04 06:12:58;;;;;;;55.35;31.27;;;;;;;3.30;59.11;95915.13;5089655;28;20213;-66
2021/03/04 06:15:26;;;;;;;56.00;32.05;;;;;;;3.65;60.74;95914.25;5089470;28;20298;-68
2021/03/04 06:17:57;;;;;;;54.38;31.20;;;;;;;3.89;56.07;95911.19;5089518;28;20223;-69
2021/03/04 06:20:35;;;;;;;56.20;31.25;;;;;;;3.19;55.83;95892.31;5089274;28;20191;-69
2021/03/04 06:23:01;;;;;;;55.47;29.30;;;;;;;3.46;55.75;95905.31;5089753;28;20298;-68
2021/03/04 06:25:28;;;;;;;60.95;28.40;;;;;;;3.17;56.17;95883.91;5090398;28;20199;-70
2021/03/04 06:27:55;;;;;;;53.45;27.60;;;;;;;3.73;55.62;95906.31;5091150;28;20202;-68
2021/03/04 06:30:23;;;;;;;56.83;27.08;;;;;;;3.63;55.46;95901.44;5090625;28;20906;-75
2021/03/04 06:33:02;;;;;;;55.78;27.63;;;;;;;3.19;57.25;95907.84;5091519;28;20207;-69
2021/03/04 06:35:38;;;;;;;49.10;24.55;;;;;;;3.71;56.32;95909.09;5091125;28;20195;-70
2021/03/04 06:38:18;;;;;;;41.92;24.00;;;;;;;3.77;55.63;95904.94;5092087;28;20223;-70
2021/03/04 06:40:45;;;;;;;49.15;23.95;;;;;;;3.64;55.42;95913.44;5092905;28;20190;-70
2021/03/04 06:43:22;;;;;;;48.90;23.33;;;;;;;3.82;55.83;95910.34;5093759;28;20184;-69
2021/03/04 06:45:50;;;;;;;41.28;22.45;;;;;;;4.25;54.33;95901.47;5092583;28;20194;-68
2021/03/04 06:48:22;;;;;;;45.20;22.45;;;;;;;4.03;55.08;95907.72;5093503;28;20183;-67
2021/03/04 06:50:56;;;;;;;41.72;21.60;;;;;;;4.19;54.62;95893.63;5092764;28;20183;-70
2021/03/04 06:53:23;;;;;;;35.25;20.25;;;;;;;4.55;52.83;95905.41;5092972;28;20199;-69
2021/03/04 06:56:04;;;;;;;37.80;19.77;;;;;;;4.41;53.30;95898.56;5094920;28;20227;-70
2021/03/04 06:58:36;;;;;;;37.58;20.30;;;;;;;4.64;54.33;95895.63;5096349;28;20282;-70
2021/03/04 07:01:09;;;;;;;42.90;22.55;;;;;;;4.34;54.68;95902.91;5092813;28;20233;-71
2021/03/04 07:03:40;;;;;;;42.70;22.05;;;;;;;5.15;58.01;95884.59;5092905;28;20195;-69
2021/03/04 07:06:26;;;;;;;51.85;23.65;;;;;;;5.37;54.40;95887.00;5092111;28;20288;-69
2021/03/04 07:08:54;;;;;;;46.22;23.48;;;;;;;5.56;52.38;95886.25;5093256;28;20202;-68
2021/03/04 07:11:24;;;;;;;41.58;23.55;;;;;;;5.48;52.79;95883.81;5092921;28;20229;-72
2021/03/04 07:13:52;;;;;;;49.40;24.30;;;;;;;5.43;53.09;95871.44;5092146;28;20289;-71
2021/03/04 07:16:20;;;;;;;43.88;23.42;;;;;;;5.66;51.79;95882.22;5092522;28;20219;-68
2021/03/04 07:18:53;;;;;;;69.72;26.10;;;;;;;5.40;52.52;95871.81;5094392;28;20210;-70
2021/03/04 07:21:21;;;;;;;43.05;24.88;;;;;;;5.41;52.52;95872.63;5098399;28;20199;-68
2021/03/04 07:23:48;;;;;;;59.97;26.38;;;;;;;5.44;53.41;95870.44;5093711;28;20218;-68
2021/03/04 07:26:16;;;;;;;50.58;26.25;;;;;;;5.71;51.27;95860.84;5094927;28;20202;-68
2021/03/04 07:28:45;;;;;;;57.55;24.27;;;;;;;6.00;50.96;95863.81;5093550;28;20258;-70
2021/03/04 07:31:13;;;;;;;46.50;24.58;;;;;;;6.34;51.46;95862.72;5092272;28;20203;-71
2021/03/04 07:33:47;;;;;;;42.63;24.67;;;;;;;6.53;49.68;95861.06;5093918;28;20206;-71
2021/03/04 07:36:18;;;;;;;43.30;24.17;;;;;;;6.23;49.21;95831.34;5092141;28;20306;-69
2021/03/04 07:38:59;;;;;;;42.28;23.05;;;;;;;6.18;50.24;95850.19;5092020;28;20270;-69
2021/03/04 07:41:35;;;;;;;45.67;24.52;;;;;;;6.41;48.32;95845.28;5091571;28;20263;-70
2021/03/04 07:44:02;;;;;;;45.20;24.80;;;;;;;6.51;49.27;95835.25;5092144;28;20201;-71
2021/03/04 07:46:37;;;;;;;48.70;25.13;;;;;;;6.54;50.20;95834.00;5091552;28;20444;-66
2021/03/04 07:49:07;;;;;;;47.65;24.65;;;;;;;6.61;49.35;95830.38;5091948;28;20663;-69
2021/03/04 07:51:48;;;;;;;55.47;25.85;;;;;;;7.04;48.27;95820.91;5091675;28;20191;-68
2021/03/04 07:54:25;;;;;;;47.60;24.17;;;;;;;6.78;48.90;95826.28;5091465;28;20615;-69
2021/03/04 07:57:03;;;;;;;43.43;23.33;;;;;;;6.93;48.67;95818.97;5091639;28;20214;-66
2021/03/04 07:59:30;;;;;;;47.03;23.87;;;;;;;7.28;48.26;95818.56;5091587;28;20453;-67
2021/03/04 08:02:01;;;;;;;42.97;23.60;;;;;;;7.45;48.02;95817.00;5090489;28;20449;-71
2021/03/04 08:04:30;;;;;;;43.87;23.50;;;;;;;7.53;46.93;95808.91;5091210;28;21576;-66
2021/03/04 08:06:58;;;;;;;39.93;22.50;;;;;;;7.56;45.78;95803.25;5090214;28;20495;-68
2021/03/04 08:09:29;;;;;;;39.15;22.83;;;;;;;7.96;44.36;95805.28;5090812;28;20521;-67
2021/03/04 08:12:14;;;;;;;39.17;23.57;;;;;;;7.78;45.17;95794.84;5091668;28;20199;-67
2021/03/04 08:14:53;;;;;;;49.03;27.27;;;;;;;7.89;47.22;95794.13;5091412;28;20536;-68
2021/03/04 08:17:19;;;;;;;50.63;26.40;;;;;;;7.93;46.87;95794.47;5091198;28;20481;-69
2021/03/04 08:19:47;;;;;;;42.20;24.50;;;;;;;8.31;45.00;95787.25;5091319;28;20445;-67
2021/03/04 08:22:21;;;;;;;38.60;23.57;;;;;;;8.52;43.62;95780.78;5091507;28;20441;-68
2021/03/04 08:24:47;;;;;;;57.43;26.03;;;;;;;8.85;44.51;95778.53;5090678;28;20445;-66
2021/03/04 08:27:14;;;;;;;51.27;26.77;;;;;;;8.94;44.04;95785.78;5091639;28;20919;-69
2021/03/04 08:29:48;;;;;;;46.40;24.93;;;;;;;9.25;44.47;95769.06;5091394;28;20449;-67
2021/03/04 08:32:15;;;;;;;130.47;38.77;;;;;;;9.50;47.45;95769.66;5092398;28;20449;-66
2021/03/04 08:34:43;;;;;;;52.60;28.30;;;;;;;9.36;45.80;95743.94;5091275;28;20459;-69
2021/03/04 08:37:21;;;;;;;44.50;24.70;;;;;;;9.29;42.62;95761.56;5091003;28;20480;-69
2021/03/04 08:39:53;;;;;;;47.87;25.20;;;;;;;9.72;42.50;95754.16;5091092;28;20448;-68
2021/03/04 08:42:19;;;;;;;43.60;23.77;;;;;;;9.72;41.89;95754.97;5091201;28;20454;-67
2021/03/04 08:44:47;;;;;;;43.13;24.27;;;;;;;10.04;41.28;95747.50;5090728;28;20449;-66
2021/03/04 08:47:17;;;;;;;43.73;24.57;;;;;;;10.24;39.71;95747.19;5090651;28;20449;-67
2021/03/04 08:49:57;;;;;;;37.53;24.23;;;;;;;10.12;41.40;95745.38;5090220;28;20442;-67
2021/03/04 08:52:27;;;;;;;46.30;28.30;;;;;;;10.08;41.18;95738.97;5090975;28;20440;-69
2021/03/04 08:54:55;;;;;;;46.77;27.23;;;;;;;10.44;41.14;95724.75;5090401;28;20879;-71
2021/03/04 08:57:25;;;;;;;49.03;27.67;;;;;;;10.29;39.27;95740.22;5090499;28;20489;-66
2021/03/04 09:00:11;;;;;;;48.27;27.47;;;;;;;10.41;40.79;95727.06;5090175;28;20520;-68
2021/03/04 09:02:44;;;;;;;49.60;28.00;;;;;;;10.67;40.86;95726.50;5090582;28;20448;-71
2021/03/04 09:05:16;;;;;;;45.30;28.33;;;;;;;11.21;39.21;95724.00;5089849;28;20530;-69
2021/03/04 09:07:44;;;;;;;45.10;25.43;;;;;;;11.27;39.50;95721.47;5090452;28;20543;-71
2021/03/04 09:10:12;;;;;;;54.03;30.83;;;;;;;11.30;40.25;95705.22;5089750;28;20535;-70
2021/03/04 09:12:40;;;;;;;56.20;31.27;;;;;;;11.99;37.57;95691.50;5090272;28;20441;-66
2021/03/04 09:15:12;;;;;;;61.10;31.63;;;;;;;12.17;37.53;95685.97;5089836;28;20437;-67
2021/03/04 09:17:42;;;;;;;48.33;29.80;;;;;;;12.13;38.41;95692.75;5089818;28;20481;-68
2021/03/04 09:20:11;;;;;;;51.80;28.57;;;;;;;11.82;38.39;95690.78;5089732;28;20854;-71
2021/03/04 09:25:26;;;;;;;71.53;28.90;;;;;;;11.85;38.28;95682.41;5089539;28;20453;-68
2021/03/04 09:27:53;;;;;;;46.30;28.10;;;;;;;12.45;36.10;95677.84;5090255;28;20437;-68
2021/03/04 09:30:30;;;;;;;44.90;28.60;;;;;;;12.00;40.04;95669.47;5088548;28;20989;-70
2021/03/04 09:32:57;;;;;;;44.07;29.53;;;;;;;11.84;38.91;95680.84;5090069;28;20441;-67
2021/03/04 09:35:24;;;;;;;54.00;30.87;;;;;;;12.47;35.75;95665.25;5087385;28;20477;-69
2021/03/04 09:37:51;;;;;;;54.43;30.07;;;;;;;12.59;37.25;95665.13;5090056;28;20506;-68
2021/03/04 09:40:30;;;;;;;67.27;31.40;;;;;;;12.98;37.40;95651.53;5089220;28;21385;-68
2021/03/04 09:42:57;;;;;;;46.23;29.37;;;;;;;12.47;35.70;95657.38;5089838;28;20528;-68
2021/03/04 09:45:24;;;;;;;46.07;28.50;;;;;;;12.80;36.22;95646.66;5089499;28;20445;-67
2021/03/04 09:47:51;;;;;;;55.97;30.30;;;;;;;13.19;36.86;95641.97;5090090;28;20445;-67
2021/03/04 09:50:28;;;;;;;52.50;29.33;;;;;;;13.19;35.79;95640.13;5089382;28;20451;-67
2021/03/04 09:53:07;;;;;;;51.43;27.90;;;;;;;12.79;37.99;95646.91;5090188;28;20432;-69
2021/03/04 09:55:40;;;;;;;51.77;27.47;;;;;;;13.02;36.26;95636.84;5089168;28;20498;-68
2021/03/04 09:58:19;;;;;;;50.77;26.03;;;;;;;13.14;36.80;95631.38;5089647;28;20533;-69
2021/03/04 10:00:54;;;;;;;42.73;26.27;;;;;;;13.59;36.15;95628.25;5091427;28;20535;-71
2021/03/04 10:03:39;;;;;;;38.67;25.17;;;;;;;13.21;34.81;95614.34;5095265;28;20437;-67
2021/03/04 10:06:20;;;;;;;42.23;25.00;;;;;;;13.39;34.49;95609.72;5093049;28;20611;-67
2021/03/04 10:08:53;;;;;;;42.03;25.30;;;;;;;13.35;33.97;95604.16;5093632;28;20468;-70
2021/03/04 10:11:24;;;;;;;48.93;26.93;;;;;;;13.56;34.49;95605.03;5093559;28;20437;-70
2021/03/04 10:13:51;;;;;;;34.57;23.13;;;;;;;13.60;34.30;95600.84;5094313;28;20527;-69
2021/03/04 10:16:17;;;;;;;44.83;24.70;;;;;;;13.75;33.99;95598.28;5092920;28;21002;-70
2021/03/04 10:18:50;;;;;;;40.63;22.70;;;;;;;14.21;33.74;95592.13;5093752;28;20540;-69
2021/03/04 10:21:18;;;;;;;40.67;22.87;;;;;;;14.50;31.75;95587.97;5092820;28;20494;-68
2021/03/04 10:23:47;;;;;;;37.90;21.63;;;;;;;14.67;31.63;95570.03;5093420;28;20942;-71
2021/03/04 10:26:15;;;;;;;45.23;24.47;;;;;;;14.32;34.29;95571.88;5092892;28;20548;-66
2021/03/04 10:28:41;;;;;;;42.93;22.50;;;;;;;14.33;33.54;95563.69;5092534;28;20532;-70
2021/03/04 10:31:09;;;;;;;39.50;21.53;;;;;;;14.28;32.79;95561.06;5092899;28;20444;-70
2021/03/04 10:33:35;;;;;;;35.07;21.80;;;;;;;14.08;32.51;95553.88;5093207;28;20437;-70
2021/03/04 10:36:02;;;;;;;43.03;23.23;;;;;;;14.23;31.71;95553.13;5092853;28;20441;-69
2021/03/04 10:38:29;;;;;;;37.83;21.77;;;;;;;14.54;33.51;95544.22;5093151;28;20492;-70
2021/03/04 10:40:55;;;;;;;37.33;22.27;;;;;;;14.70;32.61;95532.59;5092507;28;20439;-67
2021/03/04 10:43:22;;;;;;;34.87;21.07;;;;;;;14.80;32.04;95527.28;5093635;28;20445;-70
2021/03/04 10:45:48;;;;;;;38.37;21.63;;;;;;;14.95;32.06;95508.81;5093156;28;20443;-70
2021/03/04 10:48:16;;;;;;;33.70;21.60;;;;;;;15.04;31.76;95511.69;5093401;28;20545;-67
2021/03/04 10:50:43;;;;;;;32.57;20.37;;;;;;;14.72;31.64;95514.66;5092877;28;20527;-69
2021/03/04 10:53:09;;;;;;;33.70;20.77;;;;;;;14.76;32.86;95505.13;5092801;28;20429;-68
2021/03/04 10:55:40;;;;;;;33.53;21.67;;;;;;;14.83;31.19;95489.03;5092301;28;20458;-71
2021/03/04 10:58:07;;;;;;;34.10;20.70;;;;;;;14.82;30.97;95503.28;5092563;28;20568;-71
2021/03/04 11:00:34;;;;;;;35.03;21.70;;;;;;;15.33;30.23;95493.41;5092709;28;20786;-70
2021/03/04 11:03:01;;;;;;;37.97;20.37;;;;;;;15.79;29.13;95486.84;5092878;28;20559;-68
2021/03/04 11:05:27;;;;;;;36.20;22.17;;;;;;;15.36;31.25;95479.66;5091710;28;20476;-69
2021/03/04 11:07:54;;;;;;;38.17;20.57;;;;;;;14.99;30.58;95474.75;5092615;28;20437;-66
2021/03/04 11:10:20;;;;;;;34.10;20.20;;;;;;;15.48;30.06;95456.38;5091979;28;20449;-70
2021/03/04 11:12:50;;;;;;;39.23;20.73;;;;;;;15.46;29.89;95466.41;5092140;28;20437;-68
2021/03/04 11:15:17;;;;;;;35.17;19.90;;;;;;;15.42;31.30;95457.47;5091971;28;20514;-69
2021/03/04 11:17:48;;;;;;;31.80;20.10;;;;;;;15.84;31.71;95450.63;5092061;28;20485;-69
2021/03/04 11:20:15;;;;;;;33.03;19.97;;;;;;;15.79;29.60;95418.16;5092103;28;20527;-71
2021/03/04 11:22:41;;;;;;;37.27;20.57;;;;;;;15.55;31.05;95433.09;5092479;28;20455;-70
2021/03/04 11:25:08;;;;;;;65.43;22.57;;;;;;;15.96;30.18;95429.94;5092118;28;20908;-70
2021/03/04 11:27:36;;;;;;;38.87;20.67;;;;;;;16.31;30.38;95426.22;5092307;28;20847;-71
2021/03/04 11:30:04;;;;;;;35.90;20.10;;;;;;;16.28;28.91;95408.25;5091832;28;20827;-69
2021/03/04 11:32:31;;;;;;;38.60;21.20;;;;;;;16.17;29.89;95414.69;5092350;28;20467;-70
2021/03/04 11:34:58;;;;;;;39.23;19.87;;;;;;;16.32;29.69;95408.47;5092554;28;20452;-69
2021/03/04 11:37:24;;;;;;;40.03;21.97;;;;;;;16.08;29.26;95400.47;5092732;28;20479;-68